createdAt,value
2018-09-24T07:14:24.596Z,102907.12
2018-09-24T07:19:35.452Z,102909.10
2018-09-24T07:24:53.576Z,102912.30
2018-09-24T07:30:05.068Z,102916.28
2018-09-24T07:35:08.970Z,102924.70
2018-09-24T07:40:12.464Z,102933.23
2018-09-24T07:45:15.251Z,102938.64
2018-09-24T07:50:17.836Z,102947.48
2018-09-24T07:55:16.184Z,102959.70
2018-09-24T08:00:13.869Z,102972.67
2018-09-24T08:05:12.833Z,102987.89
2018-09-24T08:10:09.157Z,102992.31
2018-09-24T08:15:05.895Z,102998.75
2018-09-24T08:20:02.943Z,103003.16
2018-09-24T08:24:59.836Z,103008.21
2018-09-24T08:29:50.239Z,103008.70
2018-09-24T08:34:46.010Z,103011.13
2018-09-24T08:39:37.537Z,103012.15
2018-09-24T08:44:29.506Z,103018.42
2018-09-24T08:49:24.738Z,103015.29
2018-09-24T08:54:16.206Z,103014.79
2018-09-24T08:59:10.403Z,103022.91
2018-09-24T09:04:05.513Z,103018.41
2018-09-24T09:08:56.900Z,103027.17
2018-09-24T09:13:48.820Z,103025.44
2018-09-24T09:18:44.025Z,103031.97
2018-09-24T09:23:35.401Z,103032.20
2018-09-24T09:28:30.536Z,103039.21
2018-09-24T09:33:23.527Z,103040.82
2018-09-24T09:38:15.202Z,103046.59
2018-09-24T09:43:10.440Z,103045.63
2018-09-24T09:48:01.884Z,103050.44
2018-09-24T09:52:54.204Z,103043.05
2018-09-24T09:57:51.234Z,103045.18
2018-09-24T10:02:50.715Z,103041.62
2018-09-24T10:07:41.424Z,103049.23
2018-09-24T10:12:35.162Z,103050.27
2018-09-24T10:17:28.627Z,103055.53
2018-09-24T10:22:21.837Z,103049.08
2018-09-24T10:27:15.787Z,103052.59
2018-09-24T10:32:12.006Z,103047.69
2018-09-24T10:37:06.098Z,103035.32
2018-09-24T10:41:57.161Z,103038.02
2018-09-24T10:46:53.698Z,103048.37
2018-09-24T10:51:49.411Z,103043.08
2018-09-24T10:56:42.802Z,103050.98
2018-09-24T11:01:33.614Z,103058.18
2018-09-24T11:06:30.819Z,103055.81
2018-09-24T11:11:24.850Z,103052.30
2018-09-24T11:16:21.132Z,103054.15
2018-09-24T11:21:14.596Z,103051.59
2018-09-24T11:26:08.289Z,103055.97
2018-09-24T11:31:02.895Z,103048.21
2018-09-24T11:35:57.510Z,103057.94
2018-09-24T11:40:51.082Z,103046.50
2018-09-24T11:45:44.230Z,103050.06
2018-09-24T11:50:34.658Z,103059.09
2018-09-24T11:55:25.839Z,103065.30
2018-09-24T12:00:19.384Z,103063.02
2018-09-24T12:05:13.686Z,103064.81
2018-09-24T12:10:04.404Z,103070.94
2018-09-24T12:14:57.727Z,103080.42
2018-09-24T12:19:51.999Z,103076.66
2018-09-24T12:24:43.112Z,103069.92
2018-09-24T12:29:35.034Z,103067.47
2018-09-24T12:34:30.241Z,103064.88
2018-09-24T12:39:27.403Z,103049.50
2018-09-24T12:44:21.547Z,103048.63
2018-09-24T12:49:17.671Z,103055.27
2018-09-24T12:54:11.064Z,103055.05
2018-09-24T12:59:03.422Z,103055.39
2018-09-24T13:03:59.637Z,103054.86
2018-09-24T13:08:50.010Z,103061.05
2018-09-24T13:13:42.090Z,103055.27
2018-09-24T13:18:34.246Z,103053.31
2018-09-24T13:23:28.755Z,103053.15
2018-09-24T13:28:25.802Z,103054.13
2018-09-24T13:33:18.971Z,103061.27
2018-09-24T13:38:12.724Z,103057.14
2018-09-24T13:43:03.757Z,103065.88
2018-09-24T13:47:55.290Z,103066.67
2018-09-24T13:52:46.919Z,103057.87
2018-09-24T13:57:41.740Z,103057.97
2018-09-24T14:02:34.903Z,103048.53
2018-09-24T14:07:25.889Z,103047.59
2018-09-24T14:12:17.235Z,103051.97
2018-09-24T14:17:08.838Z,103057.83
2018-09-24T14:22:03.297Z,103049.31
2018-09-24T14:26:54.361Z,103047.30
2018-09-24T14:31:46.074Z,103046.09
2018-09-24T14:36:37.861Z,103044.73
2018-09-24T14:41:31.607Z,103045.53
2018-09-24T14:46:22.719Z,103054.00
2018-09-24T14:51:14.202Z,103055.58
2018-09-24T14:56:05.916Z,103060.52
2018-09-24T15:01:00.470Z,103057.20
2018-09-24T15:05:54.378Z,103057.92
2018-09-24T15:10:48.054Z,103074.14
2018-09-24T15:15:42.164Z,103075.52
2018-09-24T15:20:33.985Z,103081.47
2018-09-24T15:25:25.207Z,103078.27
2018-09-24T15:30:19.963Z,103084.44
2018-09-24T15:35:10.558Z,103083.47
2018-09-24T15:40:05.642Z,103082.14
2018-09-24T15:44:59.943Z,103075.31
2018-09-24T15:49:52.872Z,103090.96
2018-09-24T15:54:47.328Z,103089.48
2018-09-24T15:59:46.829Z,103089.95
2018-09-24T16:04:38.036Z,103091.27
2018-09-24T16:09:31.216Z,103096.42
2018-09-24T16:14:25.623Z,103096.80
2018-09-24T16:19:16.738Z,103093.62
2018-09-24T16:24:11.710Z,103102.28
2018-09-24T16:29:07.789Z,103110.29
2018-09-24T16:34:01.338Z,103119.91
2018-09-24T16:38:57.465Z,103128.95
2018-09-24T16:43:50.798Z,103139.52
2018-09-24T16:48:49.517Z,103144.84
2018-09-24T16:53:47.671Z,103142.03
2018-09-24T16:58:47.531Z,103150.50
2018-09-24T17:03:44.692Z,103154.27
2018-09-24T17:08:48.337Z,103161.27
2018-09-24T17:13:49.773Z,103166.15
2018-09-24T17:18:50.154Z,103168.83
2018-09-24T17:23:53.846Z,103171.50
2018-09-24T17:29:00.600Z,103171.75
2018-09-24T17:33:58.597Z,103184.23
2018-09-24T17:38:59.245Z,103184.69
2018-09-24T17:44:05.912Z,103195.27
2018-09-24T17:49:14.259Z,103193.56
2018-09-24T17:54:16.466Z,103201.71
2018-09-24T17:59:20.532Z,103210.92
2018-09-24T18:04:28.777Z,103215.75
2018-09-24T18:09:37.266Z,103235.23
2018-09-24T18:14:49.162Z,103246.31
2018-09-24T18:19:50.519Z,103248.53
2018-09-24T18:24:54.292Z,103250.78
2018-09-24T18:30:06.815Z,103256.45
2018-09-24T18:35:09.272Z,103252.25
2018-09-24T18:40:18.799Z,103267.66
2018-09-24T18:45:20.753Z,103271.00
2018-09-24T18:50:30.386Z,103280.52
2018-09-24T18:55:34.233Z,103282.09
2018-09-24T19:00:44.644Z,103296.06
2018-09-24T19:05:55.305Z,103299.96
2018-09-24T19:11:07.176Z,103311.07
2018-09-24T19:16:13.171Z,103309.84
2018-09-24T19:21:28.518Z,103310.03
2018-09-24T19:26:41.879Z,103310.08
2018-09-24T19:31:53.508Z,103310.53
2018-09-24T19:37:06.142Z,103319.49
2018-09-24T19:42:14.317Z,103329.31
2018-09-24T19:47:23.196Z,103329.00
2018-09-24T19:52:36.879Z,103335.54
2018-09-24T19:57:50.068Z,103336.05
2018-09-24T20:02:59.543Z,103343.30
2018-09-24T20:08:20.365Z,103352.23
2018-09-24T20:18:55.013Z,103353.47
2018-09-24T20:24:12.356Z,103354.63
2018-09-24T20:29:31.371Z,103363.28
2018-09-24T20:34:55.399Z,103364.14
2018-09-24T20:40:22.218Z,103370.08
2018-09-24T20:45:43.732Z,103375.95
2018-09-24T20:51:02.685Z,103380.88
2018-09-24T20:56:22.880Z,103386.77
2018-09-24T21:06:58.430Z,103395.80
2018-09-24T21:12:12.305Z,103400.89
2018-09-24T21:33:08.749Z,103411.92
2018-09-24T21:38:22.016Z,103430.73
2018-09-24T21:43:43.281Z,103434.47
2018-09-24T22:20:30.099Z,103455.88
2018-09-24T22:36:24.853Z,103451.84
